createdAt,value
2017-10-05T00:00:37.722Z,98.70
2017-10-05T00:01:38.296Z,98.70
2017-10-05T00:02:38.000Z,98.60
2017-10-05T00:03:37.735Z,98.51
2017-10-05T00:04:38.622Z,98.41
2017-10-05T00:05:38.169Z,98.51
2017-10-05T00:06:37.759Z,98.51
2017-10-05T00:07:38.310Z,98.70
2017-10-05T00:08:37.716Z,98.70
2017-10-05T00:09:37.973Z,98.79
2017-10-05T00:10:38.171Z,98.79
2017-10-05T00:11:37.805Z,98.60
2017-10-05T00:12:37.550Z,98.60
2017-10-05T00:13:38.561Z,98.70
2017-10-05T00:14:37.842Z,98.79
2017-10-05T00:15:38.230Z,98.79
2017-10-05T00:16:38.071Z,98.79
2017-10-05T00:17:37.627Z,98.79
2017-10-05T00:18:38.079Z,98.79
2017-10-05T00:19:37.320Z,98.79
2017-10-05T00:20:39.047Z,98.70
2017-10-05T00:21:37.722Z,98.60
2017-10-05T00:22:38.303Z,98.51
2017-10-05T00:23:37.212Z,98.70
2017-10-05T00:24:37.437Z,98.60
2017-10-05T00:25:37.539Z,98.70
2017-10-05T00:26:37.960Z,98.89
2017-10-05T00:27:37.500Z,98.60
2017-10-05T00:28:37.756Z,98.60
2017-10-05T00:29:37.399Z,98.60
2017-10-05T00:30:38.005Z,98.60
2017-10-05T00:31:37.582Z,98.51
2017-10-05T00:32:38.083Z,98.51
2017-10-05T00:33:37.575Z,98.60
2017-10-05T00:34:38.163Z,98.70
2017-10-05T00:35:38.130Z,98.60
2017-10-05T00:36:37.813Z,98.32
2017-10-05T00:37:38.342Z,98.03
2017-10-05T00:38:37.864Z,97.94
2017-10-05T00:39:37.438Z,98.13
2017-10-05T00:40:37.743Z,97.94
2017-10-05T00:41:38.240Z,97.94
2017-10-05T00:42:37.907Z,97.84
2017-10-05T00:43:37.047Z,97.84
2017-10-05T00:44:37.527Z,98.13
2017-10-05T00:45:37.835Z,98.03
2017-10-05T00:46:37.539Z,98.03
2017-10-05T00:47:37.773Z,97.84
2017-10-05T00:48:37.474Z,97.94
2017-10-05T00:49:37.644Z,98.03
2017-10-05T00:50:38.256Z,98.22
2017-10-05T00:51:37.790Z,98.22
2017-10-05T00:52:37.397Z,98.22
2017-10-05T00:53:37.945Z,98.32
2017-10-05T00:54:37.500Z,98.13
2017-10-05T00:55:37.914Z,98.32
2017-10-05T00:56:37.544Z,98.51
2017-10-05T00:57:37.459Z,98.70
2017-10-05T00:58:38.089Z,98.99
2017-10-05T00:59:37.242Z,99.18
2017-10-05T01:00:37.716Z,99.18
2017-10-05T01:01:37.966Z,99.46
2017-10-05T01:02:37.510Z,99.65
2017-10-05T01:03:37.779Z,99.65
2017-10-05T01:04:37.347Z,99.75
2017-10-05T01:05:37.562Z,99.94
2017-10-05T01:06:37.842Z,99.94
2017-10-05T01:07:37.452Z,99.99
2017-10-05T01:08:37.974Z,99.94
2017-10-05T01:09:37.617Z,99.94
2017-10-05T01:10:37.430Z,99.99
2017-10-05T01:11:38.550Z,99.94
2017-10-05T01:12:38.173Z,99.84
2017-10-05T01:13:37.512Z,99.94
2017-10-05T01:14:38.149Z,99.94
2017-10-05T01:15:37.334Z,99.99
2017-10-05T01:16:37.719Z,99.75
2017-10-05T01:17:37.863Z,99.75
2017-10-05T01:18:37.551Z,99.75
2017-10-05T01:19:38.108Z,99.75
2017-10-05T01:20:37.378Z,99.75
2017-10-05T01:21:38.221Z,99.55
2017-10-05T01:22:38.308Z,99.65
2017-10-05T01:23:37.909Z,99.75
2017-10-05T01:24:37.154Z,99.75
2017-10-05T01:25:37.837Z,99.75
2017-10-05T01:26:37.086Z,99.75
2017-10-05T01:27:37.790Z,99.75
2017-10-05T01:28:37.424Z,99.75
2017-10-05T01:29:37.600Z,99.37
2017-10-05T01:30:37.795Z,99.08
2017-10-05T01:31:37.086Z,99.18
2017-10-05T01:32:37.781Z,99.18
2017-10-05T01:33:37.369Z,99.18
2017-10-05T01:34:37.994Z,99.37
2017-10-05T01:35:36.988Z,99.37
2017-10-05T01:36:37.381Z,99.37
2017-10-05T01:37:38.381Z,99.37
2017-10-05T01:38:37.498Z,99.46
2017-10-05T01:39:38.157Z,99.65
2017-10-05T01:40:37.291Z,99.84
2017-10-05T01:41:37.884Z,99.99
2017-10-05T01:42:37.456Z,99.99
2017-10-05T01:43:38.032Z,99.99
2017-10-05T01:44:37.627Z,99.99
2017-10-05T01:45:37.919Z,99.99
2017-10-05T01:46:38.269Z,99.99
2017-10-05T01:47:37.526Z,99.99
2017-10-05T01:48:37.720Z,99.99
2017-10-05T01:49:38.267Z,99.99
2017-10-05T01:50:37.398Z,99.99
2017-10-05T01:51:37.967Z,99.99
2017-10-05T01:52:37.044Z,99.99
2017-10-05T01:53:37.037Z,99.99
2017-10-05T01:54:37.758Z,99.99
2017-10-05T01:55:37.517Z,99.99
2017-10-05T01:56:38.291Z,99.99
2017-10-05T01:57:38.247Z,99.99
2017-10-05T01:58:37.570Z,99.99
2017-10-05T01:59:37.920Z,99.99
2017-10-05T02:00:37.276Z,99.99
2017-10-05T02:01:37.870Z,99.99
2017-10-05T02:02:38.264Z,99.99
2017-10-05T02:03:37.828Z,99.99
2017-10-05T02:04:37.760Z,99.99
2017-10-05T02:05:37.316Z,99.99
2017-10-05T02:06:37.879Z,99.99
2017-10-05T02:07:37.743Z,99.99
2017-10-05T02:08:37.411Z,99.99
2017-10-05T02:09:37.921Z,99.99
2017-10-05T02:10:37.159Z,99.99
2017-10-05T02:11:37.691Z,99.99
2017-10-05T02:12:37.531Z,99.99
2017-10-05T02:13:37.869Z,99.99
2017-10-05T02:14:37.940Z,99.99
2017-10-05T02:15:37.448Z,99.99
2017-10-05T02:16:37.753Z,99.99
2017-10-05T02:17:36.998Z,99.99
2017-10-05T02:18:37.114Z,99.99
2017-10-05T02:19:37.710Z,99.99
2017-10-05T02:20:37.659Z,99.99
2017-10-05T02:21:38.246Z,99.99
2017-10-05T02:22:37.850Z,99.99
2017-10-05T02:23:37.937Z,99.99
2017-10-05T02:24:37.415Z,99.99
2017-10-05T02:25:38.079Z,99.99
2017-10-05T02:26:37.622Z,99.99
2017-10-05T02:27:37.984Z,99.99
2017-10-05T02:28:37.547Z,99.99
2017-10-05T02:29:37.884Z,99.99
2017-10-05T02:30:37.478Z,99.99
2017-10-05T02:31:38.237Z,99.99
2017-10-05T02:32:37.662Z,99.99
2017-10-05T02:33:36.993Z,99.99
2017-10-05T02:34:37.325Z,99.99
2017-10-05T02:35:37.712Z,99.99
2017-10-05T02:36:36.993Z,99.99
2017-10-05T02:37:37.630Z,99.99
2017-10-05T02:38:37.368Z,99.99
2017-10-05T02:39:37.725Z,99.99
2017-10-05T02:40:37.015Z,99.99
2017-10-05T02:41:37.409Z,99.99
2017-10-05T02:42:38.047Z,99.99
2017-10-05T02:43:37.449Z,99.99
2017-10-05T02:44:38.365Z,99.99
2017-10-05T02:45:37.701Z,99.99
2017-10-05T02:46:38.011Z,99.99
2017-10-05T02:47:37.783Z,99.99
2017-10-05T02:48:37.427Z,99.99
2017-10-05T02:49:38.200Z,99.99
2017-10-05T02:50:38.328Z,99.99
2017-10-05T02:51:38.073Z,99.99
2017-10-05T02:52:37.543Z,99.99
2017-10-05T02:53:37.943Z,99.99
2017-10-05T02:54:37.614Z,99.99
2017-10-05T02:55:36.933Z,99.99
2017-10-05T02:56:37.987Z,99.99
2017-10-05T02:57:37.719Z,99.99
2017-10-05T02:58:37.156Z,99.99
2017-10-05T02:59:37.791Z,99.99
2017-10-05T03:00:37.049Z,99.99
2017-10-05T03:01:37.603Z,99.99
2017-10-05T03:02:37.041Z,99.99
2017-10-05T03:03:37.624Z,99.99
2017-10-05T03:04:38.078Z,99.99
2017-10-05T03:05:37.587Z,99.99
2017-10-05T03:06:38.139Z,99.99
2017-10-05T03:07:37.371Z,99.99
2017-10-05T03:08:37.762Z,99.99
2017-10-05T03:09:37.728Z,99.99
2017-10-05T03:10:37.017Z,99.99
2017-10-05T03:11:37.982Z,99.99
2017-10-05T03:12:37.400Z,99.99
2017-10-05T03:13:37.781Z,99.99
2017-10-05T03:14:37.712Z,99.99
2017-10-05T03:15:37.409Z,99.99
2017-10-05T03:16:38.558Z,99.99
2017-10-05T03:17:37.607Z,99.99
2017-10-05T03:18:37.340Z,99.99
2017-10-05T03:19:37.993Z,99.99
2017-10-05T03:20:37.598Z,99.99
2017-10-05T03:21:37.304Z,99.99
2017-10-05T03:22:38.147Z,99.99
2017-10-05T03:23:37.658Z,99.99
2017-10-05T03:24:36.986Z,99.99
2017-10-05T03:25:37.345Z,99.99
2017-10-05T03:26:37.991Z,99.99
2017-10-05T03:27:37.913Z,99.99
2017-10-05T03:28:37.434Z,99.99
2017-10-05T03:29:38.024Z,99.99
2017-10-05T03:30:37.709Z,99.99
2017-10-05T03:31:37.301Z,99.99
2017-10-05T03:32:38.400Z,99.99
2017-10-05T03:33:38.062Z,99.99
2017-10-05T03:34:37.490Z,99.99
2017-10-05T03:35:37.910Z,99.99
2017-10-05T03:36:37.352Z,99.99
2017-10-05T03:37:38.378Z,99.99
2017-10-05T03:38:37.695Z,99.99
2017-10-05T03:39:37.461Z,99.99
2017-10-05T03:40:37.846Z,99.99
2017-10-05T03:41:37.371Z,99.99
2017-10-05T03:42:39.361Z,99.99
2017-10-05T03:43:37.369Z,99.99
2017-10-05T03:44:37.958Z,99.99
2017-10-05T03:45:37.565Z,99.99
2017-10-05T03:46:37.308Z,99.99
2017-10-05T03:47:37.250Z,99.99
2017-10-05T03:48:37.590Z,99.99
2017-10-05T03:49:37.264Z,99.99
2017-10-05T03:50:37.962Z,99.99
2017-10-05T03:51:37.736Z,99.99
2017-10-05T03:52:37.010Z,99.99
2017-10-05T03:53:37.459Z,99.99
2017-10-05T03:54:38.083Z,99.99
2017-10-05T03:55:37.630Z,99.99
2017-10-05T03:56:36.923Z,99.99
2017-10-05T03:57:37.185Z,99.99
2017-10-05T03:58:37.985Z,99.99
2017-10-05T03:59:37.543Z,99.99
2017-10-05T04:00:37.940Z,99.99
2017-10-05T04:01:37.267Z,99.99
2017-10-05T04:02:37.062Z,99.99
2017-10-05T04:03:37.642Z,99.99
2017-10-05T04:04:37.333Z,99.99
2017-10-05T04:05:37.746Z,99.99
2017-10-05T04:06:37.072Z,99.99
2017-10-05T04:07:37.235Z,99.99
2017-10-05T04:08:37.790Z,99.99
2017-10-05T04:09:37.405Z,99.99
2017-10-05T04:10:38.047Z,99.99
2017-10-05T04:11:37.040Z,99.99
2017-10-05T04:12:37.294Z,99.99
2017-10-05T04:13:37.986Z,99.99
2017-10-05T04:14:37.654Z,99.99
2017-10-05T04:15:36.956Z,99.99
2017-10-05T04:16:37.531Z,99.99
2017-10-05T04:17:37.703Z,99.99
2017-10-05T04:18:37.819Z,99.99
2017-10-05T04:19:37.334Z,99.99
2017-10-05T04:20:37.721Z,99.99
2017-10-05T04:21:36.968Z,99.99
2017-10-05T04:22:37.397Z,99.99
2017-10-05T04:23:37.421Z,99.99
2017-10-05T04:24:37.933Z,99.99
2017-10-05T04:25:37.531Z,99.99
2017-10-05T04:26:37.297Z,99.99
2017-10-05T04:27:37.522Z,99.99
2017-10-05T04:28:37.187Z,99.99
2017-10-05T04:29:37.741Z,99.99
2017-10-05T04:30:37.435Z,99.99
2017-10-05T04:31:37.577Z,99.99
2017-10-05T04:32:37.250Z,99.99
2017-10-05T04:33:37.842Z,99.99
2017-10-05T04:34:37.496Z,99.99
2017-10-05T04:35:37.592Z,99.99
2017-10-05T04:36:37.629Z,99.99
2017-10-05T04:37:36.736Z,99.99
2017-10-05T04:38:37.242Z,99.99
2017-10-05T04:39:37.432Z,99.99
2017-10-05T04:40:37.104Z,99.99
2017-10-05T04:41:37.689Z,99.99
2017-10-05T04:42:36.886Z,99.99
2017-10-05T04:43:37.122Z,99.99
2017-10-05T04:44:37.353Z,99.99
2017-10-05T04:45:37.465Z,99.99
2017-10-05T04:46:37.175Z,99.99
2017-10-05T04:47:37.322Z,99.99
2017-10-05T04:48:37.810Z,99.99
2017-10-05T04:49:37.177Z,99.99
2017-10-05T04:50:37.751Z,99.99
2017-10-05T04:51:37.066Z,99.99
2017-10-05T04:52:37.627Z,99.99
2017-10-05T04:53:37.045Z,99.99
2017-10-05T04:54:37.507Z,99.99
2017-10-05T04:55:37.700Z,99.99
2017-10-05T04:56:37.288Z,99.99
2017-10-05T04:57:37.509Z,99.99
2017-10-05T04:58:36.838Z,99.99
2017-10-05T04:59:37.012Z,99.99
2017-10-05T05:00:37.569Z,99.99
2017-10-05T05:01:37.099Z,99.99
2017-10-05T05:02:37.382Z,99.99
2017-10-05T05:03:37.408Z,99.99
2017-10-05T05:04:37.665Z,99.99
2017-10-05T05:05:37.156Z,99.99
2017-10-05T05:06:37.666Z,99.99
2017-10-05T05:07:36.764Z,99.99
2017-10-05T05:08:37.309Z,99.99
2017-10-05T05:09:37.492Z,99.99
2017-10-05T05:10:37.095Z,99.99
2017-10-05T05:11:37.500Z,99.99
2017-10-05T05:12:36.861Z,99.99
2017-10-05T05:13:37.444Z,99.99
2017-10-05T05:14:37.387Z,99.99
2017-10-05T05:15:37.631Z,99.99
2017-10-05T05:16:38.029Z,99.99
2017-10-05T05:17:37.922Z,99.99
2017-10-05T05:18:37.323Z,99.99
2017-10-05T05:19:37.144Z,99.99
2017-10-05T05:20:37.596Z,99.99
2017-10-05T05:21:37.302Z,99.99
2017-10-05T05:22:37.588Z,99.99
2017-10-05T05:23:37.170Z,99.99
2017-10-05T05:24:37.877Z,99.99
2017-10-05T05:25:37.639Z,99.99
2017-10-05T05:26:37.291Z,99.99
2017-10-05T05:27:38.011Z,99.99
2017-10-05T05:28:37.868Z,99.99
2017-10-05T05:29:37.433Z,99.99
2017-10-05T05:30:38.087Z,99.99
2017-10-05T05:31:37.759Z,99.99
2017-10-05T05:32:37.710Z,99.99
2017-10-05T05:33:38.035Z,99.99
2017-10-05T05:34:37.808Z,99.99
2017-10-05T05:35:37.054Z,99.99
2017-10-05T05:36:37.541Z,99.99
2017-10-05T05:37:37.234Z,99.99
2017-10-05T05:38:37.699Z,99.99
2017-10-05T05:39:37.322Z,99.99
2017-10-05T05:40:37.951Z,99.99
2017-10-05T05:41:37.593Z,99.99
2017-10-05T05:42:37.207Z,99.99
2017-10-05T05:43:37.687Z,99.99
2017-10-05T05:44:37.054Z,99.99
2017-10-05T05:45:37.839Z,99.99
2017-10-05T05:46:37.491Z,99.99
2017-10-05T05:47:36.913Z,99.99
2017-10-05T05:48:37.592Z,99.99
2017-10-05T05:49:37.419Z,99.99
2017-10-05T05:50:36.946Z,99.99
2017-10-05T05:51:37.485Z,99.99
2017-10-05T05:52:38.024Z,99.99
2017-10-05T05:53:37.687Z,99.99
2017-10-05T05:54:37.275Z,99.99
2017-10-05T05:55:38.048Z,99.99
2017-10-05T05:56:37.431Z,99.99
2017-10-05T05:57:37.211Z,99.99
2017-10-05T05:58:38.405Z,99.99
2017-10-05T05:59:37.264Z,99.99
2017-10-05T06:00:37.478Z,99.99
2017-10-05T06:01:37.220Z,99.99
2017-10-05T06:02:37.906Z,99.99
2017-10-05T06:03:37.961Z,99.99
2017-10-05T06:04:37.692Z,99.99
2017-10-05T06:05:37.099Z,99.99
2017-10-05T06:06:37.464Z,99.99
2017-10-05T06:07:37.052Z,99.99
2017-10-05T06:08:37.647Z,99.99
2017-10-05T06:09:37.108Z,99.99
2017-10-05T06:10:37.838Z,99.99
2017-10-05T06:11:37.692Z,99.99
2017-10-05T06:12:37.151Z,99.99
2017-10-05T06:13:38.060Z,99.99
2017-10-05T06:14:37.886Z,99.99
2017-10-05T06:15:37.625Z,99.99
2017-10-05T06:16:37.779Z,99.99
2017-10-05T06:17:37.485Z,99.99
2017-10-05T06:18:36.906Z,99.99
2017-10-05T06:19:37.628Z,99.99
2017-10-05T06:20:37.144Z,99.99
2017-10-05T06:21:37.664Z,99.99
2017-10-05T06:22:37.633Z,99.99
2017-10-05T06:23:37.409Z,99.99
2017-10-05T06:24:37.269Z,99.99
2017-10-05T06:25:38.479Z,99.99
2017-10-05T06:26:37.246Z,99.99
2017-10-05T06:27:38.308Z,99.99
2017-10-05T06:28:37.201Z,99.99
2017-10-05T06:29:37.912Z,99.99
2017-10-05T06:30:37.904Z,99.99
2017-10-05T06:31:38.270Z,99.99
2017-10-05T06:32:38.108Z,99.99
2017-10-05T06:33:37.302Z,99.99
2017-10-05T06:34:37.197Z,99.99
2017-10-05T06:35:38.072Z,99.99
2017-10-05T06:36:37.806Z,99.99
2017-10-05T06:37:37.716Z,99.99
2017-10-05T06:38:37.526Z,99.99
2017-10-05T06:39:37.430Z,99.99
2017-10-05T06:40:38.474Z,99.99
2017-10-05T06:41:36.780Z,99.99
2017-10-05T06:42:37.382Z,99.99
2017-10-05T06:43:36.861Z,99.99
2017-10-05T06:44:37.502Z,99.99
2017-10-05T06:45:37.205Z,99.99
2017-10-05T06:46:37.936Z,99.99
2017-10-05T06:47:37.487Z,99.99
2017-10-05T06:48:37.394Z,99.99
2017-10-05T06:49:38.155Z,99.99
2017-10-05T06:50:38.076Z,99.99
2017-10-05T06:51:37.919Z,99.99
2017-10-05T06:52:37.569Z,99.99
2017-10-05T06:53:36.951Z,99.99
2017-10-05T06:54:37.448Z,99.99
2017-10-05T06:55:37.177Z,99.99
2017-10-05T06:56:37.955Z,99.99
2017-10-05T06:57:37.752Z,99.99
2017-10-05T06:58:37.512Z,99.99
2017-10-05T06:59:37.062Z,99.99
2017-10-05T07:00:37.801Z,99.99
2017-10-05T07:01:37.972Z,99.99
2017-10-05T07:02:38.142Z,99.99
2017-10-05T07:03:38.015Z,99.99
2017-10-05T07:04:37.635Z,99.99
2017-10-05T07:05:37.437Z,99.99
2017-10-05T07:06:36.907Z,99.99
2017-10-05T07:07:37.647Z,99.99
2017-10-05T07:08:37.395Z,99.99
2017-10-05T07:09:38.093Z,99.99
2017-10-05T07:10:37.741Z,99.99
2017-10-05T07:11:37.470Z,99.99
2017-10-05T07:12:37.061Z,99.99
2017-10-05T07:13:37.211Z,99.99
2017-10-05T07:14:37.899Z,99.99
2017-10-05T07:15:37.633Z,99.99
2017-10-05T07:16:36.952Z,99.99
2017-10-05T07:17:37.238Z,99.99
2017-10-05T07:18:38.128Z,99.99
2017-10-05T07:19:37.777Z,99.99
2017-10-05T07:20:37.637Z,99.99
2017-10-05T07:21:37.270Z,99.99
2017-10-05T07:22:37.071Z,99.99
2017-10-05T07:23:38.033Z,99.99
2017-10-05T07:24:37.394Z,99.99
2017-10-05T07:25:37.276Z,99.99
2017-10-05T07:26:38.125Z,99.99
2017-10-05T07:27:38.039Z,99.99
2017-10-05T07:28:37.998Z,99.99
2017-10-05T07:29:37.502Z,99.99
2017-10-05T07:30:37.280Z,99.99
2017-10-05T07:31:38.096Z,99.99
2017-10-05T07:32:37.789Z,99.99
2017-10-05T07:33:37.877Z,99.99
2017-10-05T07:34:37.747Z,99.99
2017-10-05T07:35:37.604Z,99.99
2017-10-05T07:36:37.431Z,99.99
2017-10-05T07:37:37.102Z,99.99
2017-10-05T07:38:38.258Z,99.99
2017-10-05T07:39:37.317Z,99.99
2017-10-05T07:40:38.336Z,99.99
2017-10-05T07:41:36.906Z,99.99
2017-10-05T07:42:37.790Z,99.99
2017-10-05T07:43:38.150Z,99.99
2017-10-05T07:44:37.767Z,99.99
2017-10-05T07:45:37.716Z,99.99
2017-10-05T07:46:37.627Z,99.99
2017-10-05T07:47:37.734Z,99.99
2017-10-05T07:48:38.185Z,99.99
2017-10-05T07:49:37.924Z,99.99
2017-10-05T07:50:37.608Z,99.99
2017-10-05T07:51:38.409Z,99.99
2017-10-05T07:52:37.529Z,99.99
2017-10-05T07:53:37.523Z,99.99
2017-10-05T07:54:37.471Z,99.99
2017-10-05T07:55:38.105Z,99.99
2017-10-05T07:56:38.042Z,99.99
2017-10-05T07:57:37.594Z,99.99
2017-10-05T07:58:37.921Z,99.99
2017-10-05T07:59:37.490Z,99.99
2017-10-05T08:00:37.110Z,99.99
2017-10-05T08:01:37.596Z,99.99
2017-10-05T08:02:37.252Z,99.99
2017-10-05T08:03:38.027Z,99.99
2017-10-05T08:04:38.345Z,99.99
2017-10-05T08:05:37.094Z,99.99
2017-10-05T08:06:38.003Z,99.99
2017-10-05T08:07:37.790Z,99.99
2017-10-05T08:08:37.685Z,99.99
2017-10-05T08:09:37.924Z,99.99
2017-10-05T08:10:37.919Z,99.99
2017-10-05T08:11:37.873Z,99.99
2017-10-05T08:12:37.425Z,99.99
2017-10-05T08:13:37.276Z,99.99
2017-10-05T08:14:37.107Z,99.99
2017-10-05T08:15:38.477Z,99.99
2017-10-05T08:16:37.522Z,99.99
2017-10-05T08:17:38.504Z,99.99
2017-10-05T08:18:37.747Z,99.99
2017-10-05T08:19:37.516Z,99.99
2017-10-05T08:20:37.185Z,99.99
2017-10-05T08:21:38.123Z,99.99
2017-10-05T08:22:37.993Z,99.99
2017-10-05T08:23:37.587Z,99.99
2017-10-05T08:24:37.284Z,99.99
2017-10-05T08:25:38.164Z,99.99
2017-10-05T08:26:37.938Z,99.99
2017-10-05T08:27:37.962Z,99.99
2017-10-05T08:28:37.969Z,99.99
2017-10-05T08:29:37.790Z,99.99
2017-10-05T08:30:37.634Z,99.99
2017-10-05T08:31:37.321Z,99.99
2017-10-05T08:32:38.032Z,99.99
2017-10-05T08:33:37.972Z,99.99
2017-10-05T08:34:38.159Z,99.99
2017-10-05T08:35:37.324Z,99.99
2017-10-05T08:36:37.970Z,99.99
2017-10-05T08:37:38.437Z,99.99
2017-10-05T08:38:37.675Z,99.99
2017-10-05T08:39:37.333Z,99.99
2017-10-05T08:40:37.245Z,99.99
2017-10-05T08:41:38.074Z,99.99
2017-10-05T08:42:39.005Z,99.99
2017-10-05T08:43:38.703Z,99.99
2017-10-05T08:44:37.196Z,99.99
2017-10-05T08:45:38.084Z,99.99
2017-10-05T08:46:38.295Z,99.99
2017-10-05T08:47:38.389Z,99.99
2017-10-05T08:48:37.574Z,99.99
2017-10-05T08:49:37.504Z,99.99
2017-10-05T08:50:37.413Z,99.99
2017-10-05T08:51:37.441Z,99.99
2017-10-05T08:52:37.094Z,99.99
2017-10-05T08:53:38.221Z,99.99
2017-10-05T08:54:38.263Z,99.99
2017-10-05T08:55:37.358Z,99.99
2017-10-05T08:56:37.151Z,99.99
2017-10-05T08:57:38.194Z,99.99
2017-10-05T08:58:37.380Z,99.99
2017-10-05T08:59:37.515Z,99.99
2017-10-05T09:00:37.301Z,99.99
2017-10-05T09:01:38.041Z,99.99
2017-10-05T09:02:37.640Z,99.99
2017-10-05T09:03:37.329Z,99.99
2017-10-05T09:04:37.787Z,99.99
2017-10-05T09:05:37.689Z,99.99
2017-10-05T09:06:37.456Z,99.99
2017-10-05T09:07:36.848Z,99.99
2017-10-05T09:08:37.678Z,99.99
2017-10-05T09:09:37.435Z,99.99
2017-10-05T09:10:37.302Z,99.99
2017-10-05T09:11:36.797Z,99.99
2017-10-05T09:12:37.606Z,99.99
2017-10-05T09:13:37.401Z,99.99
2017-10-05T09:14:38.086Z,99.99
2017-10-05T09:15:37.744Z,99.99
2017-10-05T09:16:37.316Z,99.99
2017-10-05T09:17:38.113Z,99.99
2017-10-05T09:18:37.119Z,99.99
2017-10-05T09:19:37.136Z,99.99
2017-10-05T09:20:37.697Z,99.99
2017-10-05T09:21:37.447Z,99.99
2017-10-05T09:22:36.881Z,99.99
2017-10-05T09:23:37.542Z,99.99
2017-10-05T09:24:37.252Z,99.99
2017-10-05T09:25:38.168Z,99.99
2017-10-05T09:26:37.445Z,99.99
2017-10-05T09:27:37.469Z,99.99
2017-10-05T09:28:37.344Z,99.99
2017-10-05T09:29:37.306Z,99.99
2017-10-05T09:30:37.329Z,99.99
2017-10-05T09:31:37.988Z,99.99
2017-10-05T09:32:37.568Z,99.99
2017-10-05T09:33:37.309Z,99.99
2017-10-05T09:34:37.671Z,99.99
2017-10-05T09:35:37.576Z,99.99
2017-10-05T09:36:37.340Z,99.99
2017-10-05T09:37:37.392Z,99.99
2017-10-05T09:38:37.393Z,99.99
2017-10-05T09:39:38.051Z,99.81
2017-10-05T09:40:37.471Z,99.00
2017-10-05T09:41:37.338Z,97.28
2017-10-05T09:42:38.456Z,96.89
2017-10-05T09:43:37.343Z,96.70
2017-10-05T09:44:38.291Z,96.42
2017-10-05T09:45:38.253Z,89.99
2017-10-05T09:46:37.787Z,85.38
2017-10-05T09:47:37.848Z,87.26
2017-10-05T09:48:37.509Z,86.05
2017-10-05T09:49:37.654Z,86.64
2017-10-05T09:50:37.178Z,87.84
2017-10-05T09:51:37.755Z,86.60
2017-10-05T09:52:37.692Z,89.04
2017-10-05T09:53:37.318Z,92.49
2017-10-05T09:54:36.960Z,93.88
2017-10-05T09:55:37.665Z,94.74
2017-10-05T09:56:37.691Z,94.98
2017-10-05T09:57:37.539Z,95.84
2017-10-05T09:58:37.725Z,95.17
2017-10-05T09:59:37.495Z,95.65
2017-10-05T10:00:37.457Z,93.74
2017-10-05T10:01:37.237Z,92.59
2017-10-05T10:02:38.797Z,89.13
2017-10-05T10:03:37.757Z,85.88
2017-10-05T10:04:37.518Z,86.32
2017-10-05T10:05:37.292Z,87.81
2017-10-05T10:06:37.936Z,87.04
2017-10-05T10:07:38.663Z,86.57
2017-10-05T10:08:37.931Z,86.94
2017-10-05T10:09:37.826Z,87.37
2017-10-05T10:10:37.680Z,84.74
2017-10-05T10:11:37.409Z,84.69
2017-10-05T10:12:37.224Z,84.02
2017-10-05T10:13:38.257Z,84.41
2017-10-05T10:14:38.025Z,84.79
2017-10-05T10:15:37.868Z,85.55
2017-10-05T10:16:37.975Z,83.49
2017-10-05T10:17:37.972Z,81.37
2017-10-05T10:18:37.969Z,79.07
2017-10-05T10:19:37.641Z,79.70
2017-10-05T10:20:37.799Z,81.77
2017-10-05T10:21:37.688Z,83.73
2017-10-05T10:22:37.772Z,85.17
2017-10-05T10:23:38.764Z,85.46
2017-10-05T10:24:37.255Z,85.71
2017-10-05T10:25:37.427Z,86.08
2017-10-05T10:26:37.483Z,85.84
2017-10-05T10:27:38.066Z,85.36
2017-10-05T10:28:38.052Z,85.55
2017-10-05T10:29:37.987Z,85.75
2017-10-05T10:30:37.921Z,85.75
2017-10-05T10:31:37.858Z,85.65
2017-10-05T10:32:38.044Z,85.31
2017-10-05T10:33:37.994Z,85.31
2017-10-05T10:34:38.401Z,86.99
2017-10-05T10:35:37.243Z,87.81
2017-10-05T10:36:37.417Z,90.20
2017-10-05T10:37:37.325Z,91.39
2017-10-05T10:38:37.329Z,92.93
2017-10-05T10:39:37.609Z,94.02
2017-10-05T10:40:37.643Z,94.51
2017-10-05T10:41:37.689Z,95.56
2017-10-05T10:42:37.809Z,95.36
2017-10-05T10:43:39.320Z,95.65
2017-10-05T10:44:38.369Z,94.79
2017-10-05T10:45:37.295Z,96.03
2017-10-05T10:46:38.252Z,96.22
2017-10-05T10:47:37.316Z,96.08
2017-10-05T10:48:37.397Z,96.94
2017-10-05T10:49:37.314Z,97.03
2017-10-05T10:50:37.894Z,98.37
2017-10-05T10:51:37.639Z,98.03
2017-10-05T10:52:37.621Z,96.80
2017-10-05T10:53:37.676Z,96.80
2017-10-05T10:54:37.514Z,96.80
2017-10-05T10:55:37.440Z,94.79
2017-10-05T10:56:37.678Z,95.27
2017-10-05T10:57:38.773Z,93.88
2017-10-05T10:58:37.887Z,92.74
2017-10-05T10:59:37.769Z,92.17
2017-10-05T11:00:38.045Z,91.88
2017-10-05T11:01:38.037Z,92.74
2017-10-05T11:02:38.194Z,92.93
2017-10-05T11:03:37.171Z,92.17
2017-10-05T11:04:38.161Z,93.02
2017-10-05T11:05:38.113Z,93.79
2017-10-05T11:06:38.492Z,93.88
2017-10-05T11:07:37.295Z,94.36
2017-10-05T11:08:38.829Z,94.27
2017-10-05T11:09:37.780Z,94.74
2017-10-05T11:10:37.653Z,94.74
2017-10-05T11:11:38.213Z,95.51
2017-10-05T11:12:39.980Z,95.22
2017-10-05T11:13:38.049Z,94.84
2017-10-05T11:14:38.206Z,94.93
2017-10-05T11:15:38.542Z,95.22
2017-10-05T11:16:38.025Z,95.79
2017-10-05T11:17:38.016Z,94.27
2017-10-05T11:18:37.879Z,94.74
2017-10-05T11:19:39.269Z,94.12
2017-10-05T11:20:38.716Z,93.65
2017-10-05T11:21:37.990Z,94.07
2017-10-05T11:22:37.349Z,93.98
2017-10-05T11:23:38.204Z,93.22
2017-10-05T11:24:37.619Z,92.36
2017-10-05T11:25:37.687Z,92.83
2017-10-05T11:26:38.618Z,92.46
2017-10-05T11:27:37.822Z,92.55
2017-10-05T11:28:38.444Z,93.22
2017-10-05T11:29:37.763Z,91.98
2017-10-05T11:30:37.850Z,91.98
2017-10-05T11:31:38.363Z,92.26
2017-10-05T11:32:37.394Z,91.21
2017-10-05T11:33:37.628Z,90.31
2017-10-05T11:34:37.939Z,90.69
2017-10-05T11:35:38.356Z,89.64
2017-10-05T11:36:37.544Z,88.59
2017-10-05T11:37:37.532Z,86.96
2017-10-05T11:38:37.875Z,88.06
2017-10-05T11:39:37.517Z,86.77
2017-10-05T11:40:38.750Z,86.68
2017-10-05T11:41:37.986Z,86.87
2017-10-05T11:42:39.321Z,86.30
2017-10-05T11:43:37.947Z,85.91
2017-10-05T11:44:38.889Z,86.10
2017-10-05T11:45:38.959Z,85.87
2017-10-05T11:46:38.662Z,87.15
2017-10-05T11:47:37.891Z,87.44
2017-10-05T11:48:37.825Z,88.07
2017-10-05T11:49:41.669Z,88.07
2017-10-05T11:50:37.896Z,89.40
2017-10-05T11:51:38.643Z,90.36
2017-10-05T11:52:37.847Z,90.36
2017-10-05T11:53:37.928Z,91.50
2017-10-05T11:54:38.252Z,91.31
2017-10-05T11:55:37.126Z,90.93
2017-10-05T11:56:38.064Z,90.11
2017-10-05T11:57:37.553Z,89.54
2017-10-05T11:58:37.304Z,86.82
2017-10-05T11:59:37.039Z,86.24
2017-10-05T12:00:38.447Z,85.77
2017-10-05T12:01:37.546Z,86.15
2017-10-05T12:02:37.419Z,86.43
2017-10-05T12:03:38.364Z,83.04
2017-10-05T12:04:37.583Z,82.46
2017-10-05T12:05:39.146Z,83.28
2017-10-05T12:06:39.215Z,82.14
2017-10-05T12:07:37.829Z,82.42
2017-10-05T12:08:38.813Z,82.81
2017-10-05T12:09:37.801Z,81.36
2017-10-05T12:10:37.957Z,79.87
2017-10-05T12:11:38.199Z,75.64
2017-10-05T12:12:37.484Z,75.37
2017-10-05T12:13:39.043Z,75.22
2017-10-05T12:14:38.096Z,76.23
2017-10-05T12:15:38.734Z,77.25
2017-10-05T12:16:37.941Z,78.39
2017-10-05T12:17:38.035Z,78.49
2017-10-05T12:18:38.477Z,78.68
2017-10-05T12:19:37.422Z,77.95
2017-10-05T12:20:37.826Z,79.16
2017-10-05T12:21:37.830Z,77.69
2017-10-05T12:22:38.234Z,78.45
2017-10-05T12:23:38.562Z,79.69
2017-10-05T12:24:37.471Z,79.41
2017-10-05T12:25:37.539Z,79.69
2017-10-05T12:26:38.345Z,80.46
2017-10-05T12:27:37.719Z,79.41
2017-10-05T12:28:38.312Z,81.41
2017-10-05T12:29:37.234Z,80.84
2017-10-05T12:30:37.650Z,80.04
2017-10-05T12:31:38.441Z,81.37
2017-10-05T12:32:38.744Z,82.38
2017-10-05T12:33:37.343Z,82.86
2017-10-05T12:34:38.434Z,84.34
2017-10-05T12:35:38.880Z,85.39
2017-10-05T12:36:38.235Z,86.82
2017-10-05T12:37:38.200Z,87.68
2017-10-05T12:38:38.418Z,87.59
2017-10-05T12:39:37.335Z,87.40
2017-10-05T12:40:37.381Z,88.45
2017-10-05T12:41:38.107Z,85.67
2017-10-05T12:42:37.996Z,84.86
2017-10-05T12:43:38.214Z,85.25
2017-10-05T12:44:38.218Z,84.77
2017-10-05T12:45:37.861Z,83.70
2017-10-05T12:46:37.896Z,81.36
2017-10-05T12:47:37.970Z,81.59
2017-10-05T12:48:38.192Z,76.79
2017-10-05T12:49:37.927Z,74.15
2017-10-05T12:50:37.746Z,71.44
2017-10-05T12:51:38.072Z,70.80
2017-10-05T12:52:40.310Z,67.96